createdAt,value
2022-10-10T00:02:40.703Z,101993.69
2022-10-10T00:05:47.967Z,101995.31
2022-10-10T00:08:53.072Z,101998.81
2022-10-10T00:11:57.868Z,101994.56
2022-10-10T00:15:02.984Z,101990.34
2022-10-10T00:18:08.434Z,101990.38
2022-10-10T00:21:14.720Z,101986.09
2022-10-10T00:24:19.496Z,101997.28
2022-10-10T00:27:24.313Z,101996.34
2022-10-10T00:30:29.683Z,101994.75
2022-10-10T00:33:34.493Z,101993.94
2022-10-10T00:36:40.637Z,101992.19
2022-10-10T00:39:45.472Z,101982.00
2022-10-10T00:42:50.815Z,101978.59
2022-10-10T00:45:56.041Z,101977.72
2022-10-10T00:49:00.967Z,101978.63
2022-10-10T00:52:09.715Z,101972.69
2022-10-10T00:55:15.187Z,101971.88
2022-10-10T00:58:21.154Z,101976.19
2022-10-10T01:01:25.945Z,101960.88
2022-10-10T01:04:36.422Z,101966.78
2022-10-10T01:07:43.547Z,101966.81
2022-10-10T01:11:07.618Z,101968.59
2022-10-10T01:14:23.116Z,101964.34
2022-10-10T01:17:34.429Z,101965.22
2022-10-10T01:21:09.287Z,101966.13
2022-10-10T01:24:42.272Z,101961.88
2022-10-10T01:27:49.733Z,101959.31
2022-10-10T01:30:57.261Z,101957.59
2022-10-10T01:34:08.543Z,101956.88
2022-10-10T01:37:20.459Z,101954.31
2022-10-10T01:40:30.984Z,101962.78
2022-10-10T01:43:37.708Z,101957.72
2022-10-10T01:46:44.147Z,101960.25
2022-10-10T01:49:52.984Z,101960.25
2022-10-10T01:53:10.698Z,101962.84
2022-10-10T01:56:23.611Z,101972.25
2022-10-10T01:59:40.762Z,101960.31
2022-10-10T02:02:54.007Z,101969.59
2022-10-10T02:06:03.680Z,101971.34
2022-10-10T02:09:13.339Z,101963.69
2022-10-10T02:12:18.043Z,101962.84
2022-10-10T02:15:25.588Z,101968.84
2022-10-10T02:18:33.892Z,101964.56
2022-10-10T02:21:39.679Z,101962.00
2022-10-10T02:24:44.621Z,101962.84
2022-10-10T02:27:55.943Z,101963.69
2022-10-10T02:31:06.063Z,101967.16
2022-10-10T02:34:16.887Z,101957.91
2022-10-10T02:37:22.480Z,101962.94
2022-10-10T02:40:32.392Z,101962.97
2022-10-10T02:43:37.647Z,101968.88
2022-10-10T02:46:43.435Z,101964.66
2022-10-10T02:49:49.596Z,101960.38
2022-10-10T02:52:54.385Z,101961.22
2022-10-10T02:55:59.314Z,101958.66
2022-10-10T02:59:04.183Z,101948.56
2022-10-10T03:02:09.699Z,101958.78
2022-10-10T03:05:16.601Z,101954.53
2022-10-10T03:08:21.550Z,101959.56
2022-10-10T03:11:27.279Z,101950.25
2022-10-10T03:14:31.957Z,101957.03
2022-10-10T03:17:37.854Z,101949.41
2022-10-10T03:20:45.777Z,101946.88
2022-10-10T03:23:51.130Z,101948.50
2022-10-10T03:26:55.842Z,101951.97
2022-10-10T03:30:00.744Z,101943.47
2022-10-10T03:33:07.696Z,101952.75
2022-10-10T03:36:14.029Z,101945.97
2022-10-10T03:39:18.742Z,101945.13
2022-10-10T03:42:23.631Z,101949.38
2022-10-10T03:45:28.388Z,101937.47
2022-10-10T03:48:33.220Z,101947.72
2022-10-10T03:51:39.495Z,101936.72
2022-10-10T03:54:44.147Z,101935.78
2022-10-10T03:57:48.915Z,101935.81
2022-10-10T04:00:57.915Z,101933.25
2022-10-10T04:04:02.719Z,101933.28
2022-10-10T04:07:09.069Z,101941.00
2022-10-10T04:10:13.862Z,101937.56
2022-10-10T04:13:19.058Z,101935.91
2022-10-10T04:16:23.711Z,101937.59
2022-10-10T04:19:28.464Z,101934.22
2022-10-10T04:22:34.560Z,101937.59
2022-10-10T04:25:39.971Z,101941.84
2022-10-10T04:28:44.865Z,101933.38
2022-10-10T04:31:49.762Z,101915.50
2022-10-10T04:34:54.501Z,101923.16
2022-10-10T04:38:00.844Z,101918.03
2022-10-10T04:41:05.960Z,101920.59
2022-10-10T04:44:12.062Z,101919.75
2022-10-10T04:47:16.926Z,101921.53
2022-10-10T04:50:21.914Z,101909.53
2022-10-10T04:53:28.912Z,101912.09
2022-10-10T04:56:33.681Z,101912.09
2022-10-10T04:59:38.468Z,101915.50
2022-10-10T05:02:43.616Z,101912.06
2022-10-10T05:05:48.284Z,101916.34
2022-10-10T05:08:54.382Z,101906.13
2022-10-10T05:11:59.112Z,101906.97
2022-10-10T05:15:04.290Z,101899.25
2022-10-10T05:18:12.832Z,101899.31
2022-10-10T05:21:18.128Z,101904.47
2022-10-10T05:24:24.799Z,101907.84
2022-10-10T05:27:30.448Z,101910.38
2022-10-10T05:30:35.114Z,101901.84
2022-10-10T05:33:39.994Z,101908.69
2022-10-10T05:36:44.877Z,101899.31
2022-10-10T05:39:54.715Z,101905.25
2022-10-10T05:42:59.611Z,101889.94
2022-10-10T05:46:04.978Z,101894.19
2022-10-10T05:49:09.925Z,101887.31
2022-10-10T05:52:15.032Z,101895.00
2022-10-10T05:55:21.130Z,101890.72
2022-10-10T05:58:27.650Z,101896.66
2022-10-10T06:01:33.116Z,101895.78
2022-10-10T06:04:38.581Z,101892.41
2022-10-10T06:08:03.548Z,101894.91
2022-10-10T06:11:11.283Z,101891.50
2022-10-10T06:14:16.022Z,101898.31
2022-10-10T06:17:21.480Z,101903.41
2022-10-10T06:20:26.179Z,101905.91
2022-10-10T06:23:31.315Z,101911.00
2022-10-10T06:26:37.706Z,101914.41
2022-10-10T06:29:43.319Z,101906.66
2022-10-10T06:32:48.342Z,101898.97
2022-10-10T06:35:53.293Z,101896.31
2022-10-10T06:38:58.025Z,101904.81
2022-10-10T06:42:04.643Z,101898.84
2022-10-10T06:45:10.984Z,101895.47
2022-10-10T06:48:16.801Z,101884.34
2022-10-10T06:51:21.618Z,101896.16
2022-10-10T06:54:26.756Z,101885.94
2022-10-10T06:57:32.884Z,101892.66
2022-10-10T07:00:37.630Z,101890.88
2022-10-10T07:03:42.537Z,101890.88
2022-10-10T07:06:47.696Z,101884.88
2022-10-10T07:09:52.342Z,101886.56
2022-10-10T07:12:58.469Z,101889.84
2022-10-10T07:16:03.474Z,101880.44
2022-10-10T07:19:08.874Z,101878.72
2022-10-10T07:22:15.089Z,101882.91
2022-10-10T07:25:20.754Z,101877.69
2022-10-10T07:28:26.996Z,101883.50
2022-10-10T07:31:32.060Z,101886.00
2022-10-10T07:34:38.943Z,101880.06
2022-10-10T07:37:43.722Z,101871.50
2022-10-10T07:40:48.687Z,101861.25
2022-10-10T07:43:59.081Z,101873.06
2022-10-10T07:47:03.780Z,101879.97
2022-10-10T07:50:10.544Z,101864.44
2022-10-10T07:53:16.815Z,101861.75
2022-10-10T07:56:22.182Z,101868.47
2022-10-10T07:59:28.493Z,101864.19
2022-10-10T08:02:33.271Z,101864.00
2022-10-10T08:05:41.852Z,101854.63
2022-10-10T08:08:51.920Z,101854.69
2022-10-10T08:11:57.079Z,101841.69
2022-10-10T08:15:03.342Z,101837.34
2022-10-10T08:18:10.097Z,101831.16
2022-10-10T08:21:16.800Z,101841.22
2022-10-10T08:24:21.473Z,101829.09
2022-10-10T08:27:26.515Z,101828.91
2022-10-10T08:30:32.788Z,101827.94
2022-10-10T08:33:38.667Z,101822.88
2022-10-10T08:36:43.431Z,101824.47
2022-10-10T08:39:48.246Z,101823.69
2022-10-10T08:42:55.202Z,101809.06
2022-10-10T08:46:16.918Z,101811.41
2022-10-10T08:49:26.768Z,101813.66
2022-10-10T08:52:34.922Z,101800.88
2022-10-10T08:55:43.543Z,101797.22
2022-10-10T08:58:55.532Z,101813.56
2022-10-10T09:06:09.299Z,101800.56
2022-10-10T09:09:21.534Z,101796.25
2022-10-10T09:12:33.922Z,101793.63
2022-10-10T09:15:56.359Z,101812.47
2022-10-10T09:19:12.565Z,101794.34
2022-10-10T09:22:24.732Z,101789.09
2022-10-10T09:25:33.955Z,101782.09
2022-10-10T09:28:41.772Z,101785.25
2022-10-10T09:31:51.571Z,101792.06
2022-10-10T09:35:05.552Z,101780.84
2022-10-10T09:38:29.431Z,101779.22
2022-10-10T09:41:37.836Z,101780.22
2022-10-10T09:44:44.091Z,101776.00
2022-10-10T09:47:56.469Z,101776.94
2022-10-10T09:51:03.708Z,101766.19
2022-10-10T09:54:08.830Z,101773.91
2022-10-10T09:57:17.303Z,101762.34
2022-10-10T10:00:37.749Z,101766.28
2022-10-10T10:03:42.727Z,101758.09
2022-10-10T10:06:51.840Z,101755.38
2022-10-10T10:09:59.637Z,101750.88
2022-10-10T10:13:04.902Z,101744.16
2022-10-10T10:16:12.989Z,101734.78
2022-10-10T10:19:33.221Z,101731.25
2022-10-10T10:22:41.039Z,101735.44
2022-10-10T10:25:45.912Z,101733.78
2022-10-10T10:28:53.252Z,101725.09
2022-10-10T10:32:10.226Z,101724.09
2022-10-10T10:35:24.843Z,101718.81
2022-10-10T10:38:41.090Z,101724.03
2022-10-10T10:41:52.237Z,101712.13
2022-10-10T10:45:02.337Z,101705.22
2022-10-10T10:48:16.995Z,101692.94
2022-10-10T10:51:49.903Z,101680.94
2022-10-10T10:55:14.658Z,101686.84
2022-10-10T10:59:22.573Z,101682.38
2022-10-10T11:02:57.405Z,101676.53
2022-10-10T11:06:22.358Z,101674.91
2022-10-10T11:09:48.998Z,101674.91
2022-10-10T11:13:05.071Z,101671.31
2022-10-10T11:16:43.595Z,101659.22
2022-10-10T11:19:48.948Z,101653.94
2022-10-10T11:22:58.264Z,101640.97
2022-10-10T11:26:07.746Z,101642.56
2022-10-10T11:29:17.810Z,101633.91
2022-10-10T11:32:28.557Z,101627.78
2022-10-10T11:35:38.476Z,101627.69
2022-10-10T11:38:49.476Z,101615.53
2022-10-10T11:41:56.818Z,101609.66
2022-10-10T11:45:10.148Z,101608.44
2022-10-10T11:48:28.430Z,101606.63
2022-10-10T11:51:50.159Z,101600.72
2022-10-10T11:55:00.196Z,101593.78
2022-10-10T11:58:29.831Z,101583.41
2022-10-10T12:01:39.376Z,101577.41
2022-10-10T12:04:44.154Z,101581.47
2022-10-10T12:08:03.459Z,101577.28
2022-10-10T12:11:14.665Z,101574.69
2022-10-10T12:14:22.261Z,101571.19
2022-10-10T12:17:31.532Z,101559.88
2022-10-10T12:20:37.841Z,101555.63
2022-10-10T12:23:43.744Z,101551.22
2022-10-10T12:27:43.609Z,101538.53
2022-10-10T12:31:29.291Z,101537.66
2022-10-10T12:34:57.558Z,101540.03
2022-10-10T12:38:19.058Z,101520.13
2022-10-10T12:41:23.792Z,101534.63
2022-10-10T12:44:45.170Z,101525.19
2022-10-10T12:48:04.883Z,101524.50
2022-10-10T12:51:22.264Z,101524.91
2022-10-10T12:54:31.859Z,101518.97
2022-10-10T12:57:41.663Z,101508.91
2022-10-10T13:00:48.834Z,101522.03
2022-10-10T13:03:54.980Z,101495.34
2022-10-10T13:07:02.964Z,101488.41
2022-10-10T13:10:20.982Z,101498.03
2022-10-10T13:13:25.787Z,101495.63
2022-10-10T13:16:33.986Z,101495.44
2022-10-10T13:19:42.924Z,101484.22
2022-10-10T13:22:49.274Z,101472.16
2022-10-10T13:25:54.425Z,101478.41
2022-10-10T13:29:02.039Z,101472.34
2022-10-10T13:32:09.751Z,101459.75
2022-10-10T13:35:17.142Z,101462.31
2022-10-10T13:38:26.821Z,101463.13
2022-10-10T13:41:31.971Z,101457.13
2022-10-10T13:44:51.575Z,101452.75
2022-10-10T13:47:58.179Z,101449.47
2022-10-10T13:51:06.979Z,101431.53
2022-10-10T13:54:40.030Z,101425.09
2022-10-10T13:57:44.867Z,101437.25
2022-10-10T14:00:57.159Z,101429.50
2022-10-10T14:04:21.409Z,101422.91
2022-10-10T14:07:28.597Z,101409.88
2022-10-10T14:10:37.132Z,101406.56
2022-10-10T14:13:41.927Z,101402.56
2022-10-10T14:16:46.724Z,101406.81
2022-10-10T14:19:52.572Z,101401.88
2022-10-10T14:23:01.233Z,101387.38
2022-10-10T14:26:08.562Z,101381.78
2022-10-10T14:29:15.900Z,101377.56
2022-10-10T14:32:21.407Z,101365.59
2022-10-10T14:35:34.347Z,101383.53
2022-10-10T14:38:39.108Z,101376.06
2022-10-10T14:41:45.898Z,101371.75
2022-10-10T14:44:51.063Z,101360.56
2022-10-10T14:47:56.238Z,101359.09
2022-10-10T14:51:01.180Z,101351.31
2022-10-10T14:54:25.985Z,101351.47
2022-10-10T14:57:32.474Z,101347.97
2022-10-10T15:00:37.363Z,101339.00
2022-10-10T15:03:42.058Z,101340.75
2022-10-10T15:07:12.058Z,101355.06
2022-10-10T15:13:41.452Z,101334.22
2022-10-10T15:16:46.096Z,101327.25
2022-10-10T15:19:50.809Z,101333.31
2022-10-10T15:22:55.887Z,101323.31
2022-10-10T15:26:01.411Z,101323.44
2022-10-10T15:29:07.571Z,101317.59
2022-10-10T15:32:14.426Z,101316.66
2022-10-10T15:35:24.880Z,101314.16
2022-10-10T15:38:31.268Z,101298.22
2022-10-10T15:41:35.947Z,101307.59
2022-10-10T15:44:47.096Z,101305.91
2022-10-10T15:47:52.263Z,101305.06
2022-10-10T15:50:57.019Z,101305.91
2022-10-10T15:54:02.330Z,101301.13
2022-10-10T15:57:07.558Z,101288.38
2022-10-10T16:00:16.417Z,101290.09
2022-10-10T16:03:21.519Z,101291.09
2022-10-10T16:06:27.377Z,101279.06
2022-10-10T16:09:32.128Z,101278.34
2022-10-10T16:12:37.072Z,101272.50
2022-10-10T16:15:43.553Z,101265.78
2022-10-10T16:18:48.439Z,101269.28
2022-10-10T16:21:53.178Z,101251.31
2022-10-10T16:28:22.970Z,101266.00
2022-10-10T16:31:30.195Z,101265.22
2022-10-10T16:34:35.136Z,101268.84
2022-10-10T16:37:40.075Z,101268.00
2022-10-10T16:40:44.799Z,101248.31
2022-10-10T16:43:50.139Z,101235.84
2022-10-10T16:46:56.454Z,101250.25
2022-10-10T16:50:01.544Z,101255.31
2022-10-10T16:53:06.529Z,101243.56
2022-10-10T16:56:15.138Z,101238.38
2022-10-10T16:59:20.109Z,101225.59
2022-10-10T17:02:26.371Z,101236.81
2022-10-10T17:05:31.330Z,101233.59
2022-10-10T17:08:36.010Z,101237.81
2022-10-10T17:11:40.842Z,101231.91
2022-10-10T17:14:45.668Z,101230.19
2022-10-10T17:17:51.834Z,101231.97
2022-10-10T17:20:56.565Z,101230.31
2022-10-10T17:24:01.299Z,101230.19
2022-10-10T17:27:06.270Z,101221.84
2022-10-10T17:30:13.738Z,101226.97
2022-10-10T17:33:21.640Z,101224.47
2022-10-10T17:36:29.202Z,101217.53
2022-10-10T17:39:34.237Z,101218.59
2022-10-10T17:42:39.310Z,101222.16
2022-10-10T17:45:43.980Z,101216.06
2022-10-10T17:48:50.288Z,101224.47
2022-10-10T17:51:55.425Z,101225.44
2022-10-10T17:55:00.190Z,101229.78
2022-10-10T17:58:04.917Z,101229.59
2022-10-10T18:01:10.383Z,101231.88
2022-10-10T18:04:17.395Z,101226.63
2022-10-10T18:07:22.302Z,101214.53
2022-10-10T18:10:27.183Z,101225.88
2022-10-10T18:13:32.284Z,101200.81
2022-10-10T18:16:38.075Z,101205.28
2022-10-10T18:19:44.447Z,101207.84
2022-10-10T18:22:49.123Z,101195.72
2022-10-10T18:26:00.891Z,101200.75
2022-10-10T18:29:05.851Z,101211.91
2022-10-10T18:32:11.395Z,101206.84
2022-10-10T18:35:18.069Z,101203.38
2022-10-10T18:38:23.241Z,101202.41
2022-10-10T18:41:34.094Z,101198.19
2022-10-10T18:44:39.198Z,101175.19
2022-10-10T18:47:43.835Z,101191.41
2022-10-10T18:50:50.519Z,101175.19
2022-10-10T18:54:01.865Z,101170.91
2022-10-10T18:57:07.254Z,101167.53
2022-10-10T19:00:15.571Z,101165.84
2022-10-10T19:03:20.604Z,101152.91
2022-10-10T19:06:27.755Z,101150.63
2022-10-10T19:09:34.192Z,101153.03
2022-10-10T19:12:43.924Z,101137.81
2022-10-10T19:15:52.381Z,101145.69
2022-10-10T19:18:58.874Z,101136.34
2022-10-10T19:22:05.359Z,101131.19
2022-10-10T19:25:12.283Z,101132.81
2022-10-10T19:28:18.654Z,101123.38
2022-10-10T19:31:23.932Z,101111.34
2022-10-10T19:34:28.775Z,101101.94
2022-10-10T19:37:34.832Z,101109.44
2022-10-10T19:40:45.631Z,101101.69
2022-10-10T19:43:53.136Z,101101.59
2022-10-10T19:46:59.627Z,101096.63
2022-10-10T19:50:04.603Z,101078.72
2022-10-10T19:53:13.043Z,101082.06
2022-10-10T19:56:22.031Z,101078.13
2022-10-10T19:59:26.822Z,101072.00
2022-10-10T20:02:31.501Z,101072.09
2022-10-10T20:05:37.022Z,101066.91
2022-10-10T20:08:43.259Z,101062.75
2022-10-10T20:11:48.079Z,101062.84
2022-10-10T20:14:52.752Z,101047.44
2022-10-10T20:17:57.660Z,101048.19
2022-10-10T20:21:10.164Z,101037.94
2022-10-10T20:24:19.411Z,101032.81
2022-10-10T20:27:28.829Z,101039.09
2022-10-10T20:30:40.170Z,101031.31
2022-10-10T20:33:45.338Z,101029.59
2022-10-10T20:36:50.054Z,101024.28
2022-10-10T20:39:56.100Z,101017.44
2022-10-10T20:43:01.282Z,101008.03
2022-10-10T20:46:08.348Z,100997.78
2022-10-10T20:49:16.915Z,101002.06
2022-10-10T20:52:21.658Z,101001.03
2022-10-10T20:55:27.808Z,100999.19
2022-10-10T20:58:33.150Z,100989.81
2022-10-10T21:01:38.352Z,100974.44
2022-10-10T21:04:43.047Z,100971.75
2022-10-10T21:07:48.031Z,100964.00
2022-10-10T21:10:54.369Z,100957.03
2022-10-10T21:14:01.080Z,100958.72
2022-10-10T21:17:07.375Z,100939.06
2022-10-10T21:20:12.980Z,100944.00
2022-10-10T21:23:17.991Z,100925.16
2022-10-10T21:26:25.730Z,100929.34
2022-10-10T21:29:30.621Z,100918.22
2022-10-10T21:32:35.316Z,100918.91
2022-10-10T21:35:40.151Z,100919.69
2022-10-10T21:38:45.500Z,100908.47
2022-10-10T21:41:51.575Z,100903.34
2022-10-10T21:44:56.427Z,100910.84
2022-10-10T21:48:01.491Z,100906.59
2022-10-10T21:51:06.910Z,100898.78
2022-10-10T21:54:13.669Z,100891.84
2022-10-10T21:57:21.011Z,100894.34
2022-10-10T22:00:25.935Z,100894.34
2022-10-10T22:03:30.723Z,100878.88
2022-10-10T22:06:35.650Z,100887.44
2022-10-10T22:09:40.581Z,100893.50
2022-10-10T22:12:47.863Z,100874.53
2022-10-10T22:15:52.848Z,100867.69
2022-10-10T22:18:58.204Z,100861.66
2022-10-10T22:22:02.896Z,100865.69
2022-10-10T22:25:10.024Z,100847.00
2022-10-10T22:28:17.387Z,100835.91
2022-10-10T22:31:22.271Z,100832.50
2022-10-10T22:34:27.266Z,100823.97
2022-10-10T22:37:32.299Z,100806.91
2022-10-10T22:40:37.120Z,100785.72
2022-10-10T22:43:43.145Z,100789.22
2022-10-10T22:46:48.747Z,100796.06
2022-10-10T22:49:54.082Z,100807.72
2022-10-10T22:52:58.892Z,100804.88
2022-10-10T22:56:04.166Z,100788.75
2022-10-10T22:59:10.877Z,100779.34
2022-10-10T23:02:15.862Z,100790.31
2022-10-10T23:05:20.855Z,100780.91
2022-10-10T23:08:25.871Z,100774.22
2022-10-10T23:11:30.680Z,100774.22
2022-10-10T23:14:37.225Z,100775.28
2022-10-10T23:17:42.187Z,100755.47
2022-10-10T23:20:47.383Z,100745.38
2022-10-10T23:23:52.519Z,100748.09
2022-10-10T23:26:57.332Z,100744.53
2022-10-10T23:30:03.768Z,100743.75
2022-10-10T23:33:11.032Z,100731.75
2022-10-10T23:36:16.652Z,100726.75
2022-10-10T23:39:21.600Z,100734.00
2022-10-10T23:42:26.495Z,100728.16
2022-10-10T23:45:32.563Z,100728.34
2022-10-10T23:48:37.755Z,100707.16
2022-10-10T23:51:42.620Z,100703.13
2022-10-10T23:54:47.372Z,100699.03
2022-10-10T23:57:52.049Z,100699.28
